BAW327 LFMN-EGLL
Flight info
| Callsign | BAW327 |
|---|---|
| Flight time | N/A |
| Altitude | 34000 |
| Route | BADOD8A BADOD DCT NEDRU DCT LTP DCT BULOL DCT IDAVO DCT BAGBI DCT SIZZA DCT LAULY DCT BRY DCT CLM DCT KOPOR DCT ABNUR DCT DIMAL DCT ALESO ALESO1H |
| Aircraft | A320/M-SDE3FGHIJ1RWXY/S |
Departure
| Time | 2026-05-04 09:56 |
|---|---|
| Airport | Nice-Côte d'Azur Airport (LFMN) |
Arrival
| Time | N/A |
|---|---|
| Airport | London Heathrow Airport (EGLL) |
| Time | Latitude | Longitude | Altitude | Speed | Heading |
|---|---|---|---|---|---|
| 2026-05-04 09:25 | 43.66406 | 7.21091 | 21 ft | 0 kts | 351° |
| 2026-05-04 09:49 | 43.66403 | 7.21092 | 21 ft | 3 kts | 351° |
| 2026-05-04 09:51 | 43.66320 | 7.21147 | 21 ft | 0 kts | 261° |
| 2026-05-04 09:52 | 43.66318 | 7.21137 | 21 ft | 5 kts | 260° |
| 2026-05-04 09:52 | 43.66303 | 7.21030 | 21 ft | 15 kts | 245° |
| 2026-05-04 09:53 | 43.66199 | 7.21015 | 21 ft | 18 kts | 170° |
| 2026-05-04 09:53 | 43.66065 | 7.21047 | 21 ft | 21 kts | 169° |
| 2026-05-04 09:53 | 43.65907 | 7.21075 | 21 ft | 23 kts | 202° |
| 2026-05-04 09:53 | 43.65789 | 7.20913 | 21 ft | 26 kts | 221° |
| 2026-05-04 09:54 | 43.65616 | 7.20901 | 21 ft | 28 kts | 169° |
| 2026-05-04 09:54 | 43.65420 | 7.20948 | 23 ft | 26 kts | 168° |
| 2026-05-04 09:54 | 43.65268 | 7.20846 | 21 ft | 28 kts | 231° |
| 2026-05-04 09:54 | 43.65127 | 7.20648 | 21 ft | 23 kts | 221° |
| 2026-05-04 09:55 | 43.65007 | 7.20676 | 23 ft | 20 kts | 97° |
| 2026-05-04 09:55 | 43.65135 | 7.20874 | 21 ft | 53 kts | 44° |
| 2026-05-04 09:55 | 43.65542 | 7.21444 | 24 ft | 111 kts | 45° |
| 2026-05-04 09:55 | 43.66198 | 7.22353 | 32 ft | 154 kts | 45° |
| 2026-05-04 09:56 | 43.66849 | 7.23447 | 660 ft | 148 kts | 69° |
| 2026-05-04 09:56 | 43.66717 | 7.24879 | 1118 ft | 167 kts | 125° |
| 2026-05-04 09:56 | 43.65826 | 7.25953 | 1733 ft | 174 kts | 139° |
| 2026-05-04 09:56 | 43.64879 | 7.27145 | 2114 ft | 195 kts | 134° |
| 2026-05-04 09:57 | 43.63856 | 7.28554 | 2488 ft | 216 kts | 133° |
| 2026-05-04 09:57 | 43.62787 | 7.30059 | 3155 ft | 221 kts | 131° |
| 2026-05-04 09:57 | 43.61642 | 7.31474 | 3929 ft | 224 kts | 150° |
| 2026-05-04 09:57 | 43.60117 | 7.31830 | 4705 ft | 230 kts | 190° |
| 2026-05-04 09:58 | 43.58648 | 7.30978 | 5603 ft | 228 kts | 206° |
| 2026-05-04 09:58 | 43.57309 | 7.29849 | 6561 ft | 224 kts | 210° |
| 2026-05-04 09:58 | 43.56015 | 7.28656 | 7367 ft | 224 kts | 214° |
| 2026-05-04 10:00 | 43.59801 | 7.14864 | 12919 ft | 259 kts | 304° |
| 2026-05-04 10:00 | 43.60942 | 7.12925 | 13690 ft | 262 kts | 310° |
| 2026-05-04 10:02 | 43.73356 | 6.98665 | 15669 ft | 375 kts | 318° |
| 2026-05-04 10:04 | 43.87730 | 6.82164 | 19480 ft | 395 kts | 317° |
| 2026-05-04 10:04 | 43.89853 | 6.79710 | 19952 ft | 398 kts | 317° |
| 2026-05-04 10:04 | 43.91991 | 6.77237 | 20435 ft | 401 kts | 317° |
| 2026-05-04 10:04 | 43.94180 | 6.74818 | 20906 ft | 405 kts | 322° |
| 2026-05-04 10:05 | 43.96607 | 6.72778 | 21366 ft | 410 kts | 327° |
| 2026-05-04 10:05 | 43.99089 | 6.70800 | 21845 ft | 412 kts | 327° |
| 2026-05-04 10:05 | 44.01587 | 6.68808 | 22305 ft | 415 kts | 327° |
| 2026-05-04 10:05 | 44.04097 | 6.66802 | 22751 ft | 418 kts | 327° |
| 2026-05-04 10:06 | 44.06633 | 6.64772 | 23112 ft | 423 kts | 327° |
| 2026-05-04 10:06 | 44.09189 | 6.62719 | 23526 ft | 426 kts | 327° |
| 2026-05-04 10:06 | 44.11763 | 6.60641 | 23921 ft | 429 kts | 327° |
| 2026-05-04 10:08 | 44.27508 | 6.47914 | 26167 ft | 443 kts | 327° |
| 2026-05-04 10:08 | 44.30150 | 6.45770 | 26548 ft | 445 kts | 326° |
| 2026-05-04 10:08 | 44.32825 | 6.43596 | 26918 ft | 447 kts | 326° |
| 2026-05-04 10:08 | 44.35526 | 6.41401 | 27279 ft | 450 kts | 326° |
| 2026-05-04 10:09 | 44.38236 | 6.39199 | 27653 ft | 452 kts | 326° |
| 2026-05-04 10:09 | 44.40967 | 6.36971 | 28019 ft | 455 kts | 326° |
| 2026-05-04 10:09 | 44.43713 | 6.34726 | 28368 ft | 457 kts | 326° |
| 2026-05-04 10:09 | 44.46467 | 6.32476 | 28670 ft | 461 kts | 326° |
| 2026-05-04 10:10 | 44.49243 | 6.30207 | 29035 ft | 463 kts | 326° |
| 2026-05-04 10:10 | 44.52024 | 6.27936 | 29512 ft | 462 kts | 326° |
| 2026-05-04 10:10 | 44.54792 | 6.25672 | 29994 ft | 461 kts | 326° |
| 2026-05-04 10:10 | 44.57558 | 6.23404 | 30445 ft | 460 kts | 326° |
| 2026-05-04 10:11 | 44.60308 | 6.21144 | 30887 ft | 457 kts | 326° |
| 2026-05-04 10:11 | 44.63054 | 6.18886 | 31353 ft | 456 kts | 325° |
| 2026-05-04 10:11 | 44.65784 | 6.16637 | 31814 ft | 454 kts | 325° |
| 2026-05-04 10:11 | 44.68496 | 6.14403 | 32299 ft | 451 kts | 325° |
| 2026-05-04 10:12 | 44.71156 | 6.12211 | 32791 ft | 449 kts | 325° |
| 2026-05-04 10:12 | 44.73848 | 6.09987 | 33305 ft | 447 kts | 324° |
| 2026-05-04 10:12 | 44.76518 | 6.07784 | 33826 ft | 443 kts | 324° |
| 2026-05-04 10:12 | 44.79173 | 6.05593 | 34059 ft | 441 kts | 324° |
| 2026-05-04 10:13 | 44.84528 | 6.01152 | 34107 ft | 450 kts | 324° |
| 2026-05-04 10:13 | 44.89946 | 5.96645 | 34085 ft | 453 kts | 324° |
| 2026-05-04 10:14 | 44.95376 | 5.92128 | 34068 ft | 453 kts | 324° |
| 2026-05-04 10:16 | 45.16881 | 5.73525 | 34047 ft | 453 kts | 321° |
| 2026-05-04 10:16 | 45.22148 | 5.68600 | 34054 ft | 454 kts | 321° |
| 2026-05-04 10:17 | 45.27452 | 5.63707 | 34054 ft | 455 kts | 322° |
| 2026-05-04 10:19 | 45.48872 | 5.44056 | 34081 ft | 463 kts | 327° |
| 2026-05-04 10:19 | 45.54790 | 5.40281 | 34059 ft | 467 kts | 332° |
| 2026-05-04 10:20 | 45.60760 | 5.36586 | 34044 ft | 468 kts | 332° |
| 2026-05-04 10:20 | 45.65719 | 5.33502 | 34047 ft | 469 kts | 332° |
| 2026-05-04 10:21 | 45.72693 | 5.29174 | 34029 ft | 471 kts | 332° |
| 2026-05-04 10:21 | 45.78714 | 5.25428 | 34029 ft | 472 kts | 332° |
| 2026-05-04 10:22 | 45.86730 | 5.20408 | 34048 ft | 473 kts | 332° |
| 2026-05-04 10:23 | 45.92780 | 5.16618 | 34037 ft | 475 kts | 332° |
| 2026-05-04 10:25 | 46.17113 | 5.01226 | 34058 ft | 478 kts | 332° |
| 2026-05-04 10:25 | 46.23184 | 4.97351 | 34044 ft | 476 kts | 332° |
| 2026-05-04 10:26 | 46.29258 | 4.93464 | 34053 ft | 478 kts | 332° |
| 2026-05-04 10:26 | 46.35335 | 4.89566 | 34050 ft | 478 kts | 332° |
| 2026-05-04 10:27 | 46.41414 | 4.85660 | 34048 ft | 478 kts | 332° |
| 2026-05-04 10:27 | 46.47452 | 4.81764 | 34078 ft | 478 kts | 332° |
| 2026-05-04 10:28 | 46.53506 | 4.77843 | 34039 ft | 475 kts | 331° |
| 2026-05-04 10:28 | 46.59568 | 4.73924 | 34029 ft | 477 kts | 332° |
| 2026-05-04 10:29 | 46.65637 | 4.69988 | 34023 ft | 478 kts | 332° |
| 2026-05-04 10:29 | 46.71704 | 4.66038 | 34024 ft | 478 kts | 331° |
| 2026-05-04 10:30 | 46.77771 | 4.62075 | 34024 ft | 478 kts | 331° |
| 2026-05-04 10:30 | 46.83842 | 4.58108 | 34025 ft | 478 kts | 332° |
| 2026-05-04 10:31 | 46.89923 | 4.54152 | 34033 ft | 478 kts | 332° |
| 2026-05-04 10:32 | 47.11222 | 4.40266 | 34003 ft | 479 kts | 332° |
| 2026-05-04 10:33 | 47.17294 | 4.36263 | 34005 ft | 479 kts | 331° |
| 2026-05-04 10:33 | 47.23375 | 4.32243 | 34008 ft | 479 kts | 332° |
| 2026-05-04 10:34 | 47.29462 | 4.28215 | 34002 ft | 480 kts | 332° |
| 2026-05-04 10:34 | 47.35559 | 4.24177 | 34016 ft | 480 kts | 331° |
| 2026-05-04 10:35 | 47.41647 | 4.20141 | 34013 ft | 479 kts | 332° |
| 2026-05-04 10:35 | 47.47692 | 4.16131 | 34023 ft | 479 kts | 332° |
| 2026-05-04 10:36 | 47.53772 | 4.12074 | 34023 ft | 479 kts | 331° |
| 2026-05-04 10:36 | 47.59838 | 4.08013 | 34020 ft | 478 kts | 331° |
| 2026-05-04 10:37 | 47.65900 | 4.03955 | 34009 ft | 478 kts | 331° |
| 2026-05-04 10:37 | 47.71958 | 3.99896 | 34010 ft | 478 kts | 332° |
| 2026-05-04 10:39 | 47.93176 | 3.85582 | 34009 ft | 478 kts | 331° |
| 2026-05-04 10:40 | 47.99236 | 3.81483 | 34011 ft | 479 kts | 331° |
| 2026-05-04 10:40 | 48.05288 | 3.77363 | 34015 ft | 478 kts | 331° |
| 2026-05-04 10:41 | 48.11335 | 3.73226 | 34011 ft | 478 kts | 330° |